Time;durP1;ratioP1;P1;durP2;ratioP2;P2;SDS_P1;SDS_P2;PMS_P1;PMS_P2;Temp;Humidity;BMP_temperature;BMP_pressure;BME280_temperature;BME280_humidity;BME280_pressure;Samples;Min_cycle;Max_cycle;Signal;HPM_P1;HPM_P2
2024/04/15 00:01:18;;;;;;;6.10;3.50;;;;;;;12.42;68.80;98663.31;227327;1266;22532;-74
2024/04/15 00:06:20;;;;;;;5.10;3.30;;;;;;;12.33;69.10;98645.86;227150;1272;22652;-74
2024/04/15 00:11:22;;;;;;;6.30;3.00;;;;;;;12.25;69.08;98653.79;227312;1272;22691;-75
2024/04/15 00:16:24;;;;;;;6.50;3.10;;;;;;;12.19;69.19;98647.53;227268;1272;22532;-75
2024/04/15 00:21:26;;;;;;;6.30;3.10;;;;;;;12.16;69.33;98633.52;227316;1270;22539;-74
2024/04/15 00:26:28;;;;;;;6.70;3.40;;;;;;;12.13;69.83;98629.05;227430;1267;25374;-74
2024/04/15 00:31:29;;;;;;;5.60;3.80;;;;;;;12.07;69.63;98622.70;227374;1270;22550;-74
2024/04/15 00:36:31;;;;;;;7.10;3.60;;;;;;;12.02;69.89;98600.30;227323;1267;22592;-74
2024/04/15 00:41:33;;;;;;;8.20;3.80;;;;;;;11.95;69.88;98589.81;227170;1272;22580;-74
2024/04/15 00:46:35;;;;;;;10.00;4.20;;;;;;;11.89;70.26;98590.82;227324;1269;23046;-74
2024/04/15 00:51:40;;;;;;;6.30;4.00;;;;;;;11.83;70.32;98579.95;227393;1269;22558;-74
2024/04/15 00:56:43;;;;;;;6.80;3.90;;;;;;;11.77;70.41;98574.91;227371;1270;22591;-74
2024/04/15 01:01:45;;;;;;;7.60;4.10;;;;;;;11.71;70.31;98564.05;227385;1271;22562;-74
2024/04/15 01:06:48;;;;;;;9.30;3.90;;;;;;;11.66;70.60;98548.89;227129;1271;22545;-74
2024/04/15 01:11:50;;;;;;;10.00;4.30;;;;;;;11.60;70.67;98535.27;227375;1269;22568;-75
2024/04/15 01:16:52;;;;;;;6.60;4.70;;;;;;;11.55;70.70;98530.39;227015;1266;486138;-75
2024/04/15 01:21:54;;;;;;;8.00;4.50;;;;;;;11.50;70.78;98528.86;227125;1270;22546;-74
2024/04/15 01:26:56;;;;;;;7.10;4.70;;;;;;;11.46;70.98;98518.14;227360;1266;22531;-74
2024/04/15 01:31:58;;;;;;;8.20;5.30;;;;;;;11.42;71.31;98509.09;227319;1269;24761;-74
2024/04/15 01:37:00;;;;;;;8.60;5.50;;;;;;;11.38;71.39;98502.09;227286;1269;22555;-74
2024/04/15 01:42:02;;;;;;;11.40;6.50;;;;;;;11.34;71.51;98486.54;227398;1269;22729;-74
2024/04/15 01:47:04;;;;;;;10.90;5.90;;;;;;;11.30;71.78;98472.89;227332;1269;22586;-74
2024/04/15 01:52:06;;;;;;;6.40;4.80;;;;;;;11.28;71.67;98466.70;227336;1269;22538;-74
2024/04/15 01:57:08;;;;;;;7.80;4.60;;;;;;;11.27;71.80;98456.09;227293;1271;22520;-73
2024/04/15 02:02:09;;;;;;;7.50;4.10;;;;;;;11.27;71.82;98448.69;227324;1267;22599;-74
2024/04/15 02:07:11;;;;;;;7.40;4.20;;;;;;;11.26;71.92;98435.59;227408;1270;22770;-73
2024/04/15 02:12:13;;;;;;;11.00;4.60;;;;;;;11.25;71.81;98420.53;227342;1270;22592;-74
2024/04/15 02:17:15;;;;;;;6.50;4.60;;;;;;;11.23;71.80;98407.42;227312;1270;22550;-74
2024/04/15 02:22:17;;;;;;;5.40;4.40;;;;;;;11.16;72.10;98390.72;227396;1270;22535;-75
2024/04/15 02:27:18;;;;;;;9.00;5.20;;;;;;;11.07;72.26;98386.29;227096;1270;22572;-75
2024/04/15 02:32:20;;;;;;;6.50;4.90;;;;;;;10.98;72.49;98389.27;227297;1270;22555;-74
2024/04/15 02:37:22;;;;;;;7.00;5.30;;;;;;;10.93;72.68;98381.42;227150;1272;22723;-75
2024/04/15 02:42:24;;;;;;;9.40;5.70;;;;;;;10.88;73.07;98372.90;227292;1269;22547;-75
2024/04/15 02:47:26;;;;;;;7.90;6.00;;;;;;;10.84;73.34;98359.88;227366;1269;22569;-74
2024/04/15 02:52:28;;;;;;;11.00;6.60;;;;;;;10.80;73.51;98341.88;227360;1269;22531;-74
2024/04/15 02:57:29;;;;;;;9.90;6.40;;;;;;;10.75;73.45;98333.31;227350;1271;22543;-74
2024/04/15 03:02:31;;;;;;;7.60;5.80;;;;;;;10.71;73.70;98327.73;227418;1270;24258;-74
2024/04/15 03:07:33;;;;;;;10.10;5.90;;;;;;;10.68;73.66;98317.00;227397;1266;22553;-74
2024/04/15 03:12:34;;;;;;;9.60;6.40;;;;;;;10.66;73.69;98296.07;227416;1269;22565;-74
2024/04/15 03:17:36;;;;;;;9.10;6.20;;;;;;;10.61;73.93;98276.61;227163;1270;22682;-74
2024/04/15 03:22:38;;;;;;;9.10;6.10;;;;;;;10.56;74.26;98257.79;227362;1266;22522;-75
2024/04/15 03:27:40;;;;;;;10.30;5.10;;;;;;;10.52;74.15;98232.96;227361;1270;23463;-75
2024/04/15 03:32:42;;;;;;;8.70;5.30;;;;;;;10.47;74.22;98233.09;227378;1269;22543;-74
2024/04/15 03:37:44;;;;;;;8.90;5.30;;;;;;;10.44;74.08;98248.34;227161;1272;22544;-73
2024/04/15 03:42:46;;;;;;;6.70;5.10;;;;;;;10.41;74.41;98238.46;227197;1269;25358;-74
2024/04/15 03:47:50;;;;;;;8.20;5.10;;;;;;;10.44;74.50;98229.37;227184;1269;22524;-74
2024/04/15 03:52:54;;;;;;;7.30;5.40;;;;;;;10.50;74.45;98218.86;227374;1269;24059;-74
2024/04/15 03:57:56;;;;;;;10.50;5.60;;;;;;;10.57;74.49;98205.45;227178;1271;23583;-74
2024/04/15 04:02:57;;;;;;;11.80;6.80;;;;;;;10.63;74.27;98190.91;227355;1269;22523;-74
2024/04/15 04:07:59;;;;;;;12.00;6.20;;;;;;;10.67;74.31;98189.55;227366;1272;22656;-74
2024/04/15 04:13:01;;;;;;;8.10;6.00;;;;;;;10.71;74.51;98213.99;227348;1272;22635;-75
2024/04/15 04:18:07;;;;;;;9.00;6.70;;;;;;;10.74;74.51;98244.57;227341;1272;22608;-74
2024/04/15 04:23:09;;;;;;;10.60;6.40;;;;;;;10.81;75.03;98234.49;227096;1271;22528;-74
2024/04/15 04:28:10;;;;;;;9.60;6.60;;;;;;;10.86;75.20;98211.15;227363;1269;22776;-74
2024/04/15 04:33:12;;;;;;;13.30;6.80;;;;;;;10.93;75.65;98196.23;227299;1271;22609;-73
2024/04/15 04:38:14;;;;;;;9.30;6.90;;;;;;;10.96;75.77;98194.58;227350;1269;25265;-74
2024/04/15 04:43:16;;;;;;;11.40;7.00;;;;;;;10.99;75.86;98190.85;227350;1250;22669;-74
2024/04/15 04:48:18;;;;;;;11.30;7.30;;;;;;;11.00;76.12;98207.85;227321;1269;22560;-73
2024/04/15 04:53:20;;;;;;;10.90;7.60;;;;;;;11.02;76.45;98217.69;227286;1269;22542;-75
2024/04/15 04:58:21;;;;;;;9.40;7.20;;;;;;;11.06;76.89;98227.50;227320;1270;22558;-74
2024/04/15 05:03:23;;;;;;;10.70;7.00;;;;;;;11.08;77.00;98230.31;227362;1266;24619;-74
2024/04/15 05:08:25;;;;;;;10.80;7.60;;;;;;;11.11;77.55;98215.17;227308;1271;22597;-74
2024/04/15 05:13:28;;;;;;;15.30;8.60;;;;;;;11.10;77.55;98211.11;227295;1269;22557;-74
2024/04/15 05:18:30;;;;;;;12.60;8.60;;;;;;;11.04;77.82;98210.58;227264;1269;22543;-75
2024/04/15 05:23:31;;;;;;;16.20;8.60;;;;;;;11.01;78.01;98206.23;227361;1269;22539;-75
2024/04/15 05:28:33;;;;;;;14.80;11.00;;;;;;;10.88;78.11;98262.34;227382;1260;22700;-75
2024/04/15 05:33:35;;;;;;;17.80;8.20;;;;;;;10.66;79.08;98328.77;227326;1269;22548;-75
2024/04/15 05:38:37;;;;;;;14.40;7.90;;;;;;;10.48;79.34;98281.77;227328;1267;23635;-73
2024/04/15 05:43:39;;;;;;;13.50;8.60;;;;;;;10.47;79.85;98281.10;227316;1269;22638;-74
2024/04/15 05:48:41;;;;;;;12.20;7.10;;;;;;;10.49;79.83;98251.41;227299;1272;24251;-74
2024/04/15 05:53:43;;;;;;;13.70;7.20;;;;;;;10.54;80.14;98248.73;226906;1263;25068;-74
2024/04/15 05:58:47;;;;;;;10.60;7.40;;;;;;;10.58;80.09;98246.73;226898;1250;22602;-74
2024/04/15 06:03:48;;;;;;;14.80;8.00;;;;;;;10.61;80.11;98251.75;226530;1257;24429;-74
2024/04/15 06:08:50;;;;;;;16.60;11.00;;;;;;;10.63;80.27;98259.40;226815;1260;22559;-74
2024/04/15 06:13:52;;;;;;;10.90;8.60;;;;;;;10.71;80.45;98235.71;226714;1253;22662;-73
2024/04/15 06:18:54;;;;;;;14.40;8.90;;;;;;;10.76;80.80;98258.73;226760;1261;24257;-74
2024/04/15 06:23:56;;;;;;;12.70;8.40;;;;;;;10.79;80.81;98222.02;226600;1267;22541;-73
2024/04/15 06:28:58;;;;;;;10.10;7.00;;;;;;;10.82;80.82;98227.52;226767;1257;22536;-74
2024/04/15 06:34:00;;;;;;;12.70;8.80;;;;;;;10.78;80.81;98240.10;226602;1260;24278;-74
2024/04/15 06:39:02;;;;;;;12.40;8.60;;;;;;;10.73;80.68;98194.16;226667;1257;22548;-75
2024/04/15 06:44:04;;;;;;;12.50;8.50;;;;;;;10.72;81.04;98176.96;226580;1262;22542;-76
2024/04/15 06:49:06;;;;;;;12.60;8.50;;;;;;;10.75;81.05;98181.89;226605;1258;22517;-73
2024/04/15 06:54:09;;;;;;;14.10;9.80;;;;;;;10.74;81.19;98209.48;226558;1260;22538;-75
2024/04/15 06:59:11;;;;;;;12.70;9.60;;;;;;;10.69;80.93;98197.29;226495;1255;22570;-74
2024/04/15 07:04:13;;;;;;;13.90;10.70;;;;;;;10.69;81.42;98228.30;226370;1256;22582;-74
2024/04/15 07:09:14;;;;;;;14.20;9.40;;;;;;;10.59;81.30;98246.51;226618;1266;22543;-72
2024/04/15 07:14:16;;;;;;;9.80;7.50;;;;;;;10.45;81.38;98240.71;226635;1257;22638;-75
2024/04/15 07:19:18;;;;;;;9.50;6.50;;;;;;;10.27;81.72;98240.67;226563;1253;22574;-74
2024/04/15 07:24:20;;;;;;;9.70;6.40;;;;;;;10.14;81.71;98258.05;226437;1257;22539;-72
2024/04/15 07:29:22;;;;;;;10.10;6.30;;;;;;;10.09;81.65;98246.67;226624;1263;24966;-74
2024/04/15 07:34:24;;;;;;;6.40;3.80;;;;;;;10.11;81.71;98231.36;226763;1253;22585;-74
2024/04/15 07:39:28;;;;;;;7.00;3.50;;;;;;;10.12;81.38;98221.58;227062;1269;22541;-76
2024/04/15 07:44:29;;;;;;;10.60;5.70;;;;;;;10.14;81.46;98205.51;226929;1251;22818;-76
2024/04/15 07:49:33;;;;;;;7.50;4.60;;;;;;;10.22;81.36;98196.27;227007;1260;22541;-74
2024/04/15 07:54:36;;;;;;;6.60;4.70;;;;;;;10.38;81.07;98205.15;227033;1269;23122;-74
2024/04/15 07:59:38;;;;;;;8.50;4.40;;;;;;;10.47;80.88;98210.45;226754;1264;22616;-72
2024/04/15 08:04:39;;;;;;;5.40;4.50;;;;;;;10.56;81.01;98199.03;226760;1251;22548;-75
2024/04/15 08:09:41;;;;;;;7.90;4.70;;;;;;;10.73;81.01;98184.70;226764;1268;24302;-74
2024/04/15 08:14:43;;;;;;;5.60;3.90;;;;;;;10.95;80.85;98187.48;226931;1268;25567;-74
2024/04/15 08:19:45;;;;;;;5.90;3.90;;;;;;;11.10;80.40;98199.39;227105;1269;22531;-75
2024/04/15 08:24:48;;;;;;;7.20;4.60;;;;;;;11.24;80.18;98189.73;226928;1264;22556;-74
2024/04/15 08:29:54;;;;;;;7.90;5.20;;;;;;;11.47;80.00;98183.85;226900;1260;25284;-76
2024/04/15 08:34:56;;;;;;;7.50;4.40;;;;;;;11.52;79.52;98193.69;227121;1253;22560;-75
2024/04/15 08:39:58;;;;;;;9.30;4.80;;;;;;;11.64;79.43;98197.22;226851;1263;22543;-74
2024/04/15 08:45:06;;;;;;;7.60;5.30;;;;;;;11.76;79.60;98209.16;226905;1257;24228;-74
2024/04/15 08:50:08;;;;;;;6.10;4.60;;;;;;;11.77;78.91;98213.77;226943;1257;22571;-75
2024/04/15 08:55:11;;;;;;;9.70;5.60;;;;;;;11.78;78.74;98230.07;227085;1260;22674;-76
2024/04/15 09:00:20;;;;;;;10.60;6.20;;;;;;;11.74;78.51;98245.63;226887;1264;22645;-75
2024/04/15 09:05:21;;;;;;;8.80;6.50;;;;;;;11.70;78.62;98239.03;226904;1264;22608;-75
2024/04/15 09:10:23;;;;;;;10.00;6.20;;;;;;;11.76;78.67;98250.41;227065;1260;25040;-76
2024/04/15 09:15:26;;;;;;;12.40;6.90;;;;;;;11.87;78.61;98245.87;227132;1271;22546;-76
2024/04/15 09:20:29;;;;;;;12.00;7.60;;;;;;;11.96;78.23;98248.20;226968;1258;22534;-75
2024/04/15 09:25:50;;;;;;;11.00;7.50;;;;;;;12.00;77.64;98253.41;226981;1266;22585;-76
2024/04/15 09:30:52;;;;;;;12.80;8.30;;;;;;;11.97;77.68;98257.20;227096;1267;25676;-76
2024/04/15 09:35:54;;;;;;;10.10;8.80;;;;;;;12.06;77.62;98266.52;227100;1269;22538;-74
2024/04/15 09:40:58;;;;;;;11.40;8.80;;;;;;;12.15;77.74;98261.77;226788;1257;24223;-76
2024/04/15 09:46:00;;;;;;;10.30;7.80;;;;;;;12.16;77.41;98250.23;226788;1266;22695;-75
2024/04/15 09:51:06;;;;;;;9.30;7.30;;;;;;;12.08;76.76;98228.84;226687;1263;22996;-76
2024/04/15 09:56:27;;;;;;;7.90;6.20;;;;;;;12.09;76.71;98204.35;226727;1264;22548;-76
2024/04/15 10:01:33;;;;;;;8.90;5.40;;;;;;;12.16;76.49;98196.13;227022;1270;22526;-75
2024/04/15 10:06:41;;;;;;;8.30;4.20;;;;;;;12.31;75.76;98198.98;226711;1267;24910;-78
2024/04/15 10:11:50;;;;;;;7.80;4.40;;;;;;;12.50;75.07;98200.39;226943;1270;22531;-78
2024/04/15 10:16:54;;;;;;;8.70;4.50;;;;;;;12.91;74.08;98193.15;226849;1267;23755;-76
2024/04/15 10:21:56;;;;;;;11.00;5.80;;;;;;;13.23;73.69;98173.94;227062;1251;22549;-78
2024/04/15 10:26:59;;;;;;;10.60;5.20;;;;;;;13.61;73.04;98172.80;226925;1269;22553;-75
2024/04/15 10:32:06;;;;;;;9.80;5.00;;;;;;;13.79;71.94;98176.63;226714;1259;22559;-78
2024/04/15 10:37:12;;;;;;;8.40;4.70;;;;;;;13.88;71.31;98175.54;226791;1251;22532;-78
2024/04/15 10:42:14;;;;;;;6.60;4.30;;;;;;;13.88;70.84;98170.83;226887;1257;22555;-77
2024/04/15 10:47:16;;;;;;;9.10;5.40;;;;;;;13.94;70.28;98159.90;226914;1258;22540;-77
2024/04/15 10:52:19;;;;;;;7.20;4.90;;;;;;;14.02;70.39;98164.73;226828;1254;22564;-77
2024/04/15 10:57:21;;;;;;;7.00;4.60;;;;;;;14.12;69.94;98166.17;227065;1260;22583;-77
2024/04/15 11:02:23;;;;;;;6.50;4.90;;;;;;;14.12;69.34;98156.44;227027;1251;22600;-76
2024/04/15 11:07:25;;;;;;;9.50;5.10;;;;;;;14.10;68.91;98147.21;226791;1261;22537;-76
2024/04/15 11:12:27;;;;;;;10.50;5.20;;;;;;;14.15;68.92;98139.77;226652;1270;22759;-76
2024/04/15 11:17:32;;;;;;;8.00;4.50;;;;;;;14.27;69.01;98129.79;226831;1267;22542;-75
2024/04/15 11:22:35;;;;;;;9.90;5.20;;;;;;;14.43;68.67;98123.55;226806;1253;23209;-75
2024/04/15 11:27:50;;;;;;;11.00;6.50;;;;;;;14.60;68.35;98106.16;226882;1263;23003;-73
2024/04/15 11:33:00;;;;;;;8.80;5.30;;;;;;;14.83;68.13;98091.10;226968;1270;23024;-77
2024/04/15 11:38:02;;;;;;;7.40;5.20;;;;;;;14.99;67.63;98080.88;226964;1258;22526;-78
2024/04/15 11:43:04;;;;;;;6.90;4.70;;;;;;;15.17;67.01;98077.59;226776;1256;22516;-75
2024/04/15 11:48:07;;;;;;;8.10;4.90;;;;;;;15.33;66.42;98080.20;226837;1266;22558;-77
2024/04/15 11:53:09;;;;;;;6.50;5.10;;;;;;;15.28;66.13;98073.77;226923;1269;22574;-78
2024/04/15 11:58:12;;;;;;;8.30;5.20;;;;;;;15.26;66.05;98073.36;226940;1264;25021;-76
2024/04/15 12:03:21;;;;;;;7.00;4.30;;;;;;;15.22;65.88;98074.08;226918;1251;22678;-78
2024/04/15 12:08:24;;;;;;;8.20;4.60;;;;;;;15.05;65.68;98076.05;226850;1263;22533;-78
2024/04/15 12:13:26;;;;;;;5.80;4.10;;;;;;;14.84;65.53;98066.66;226789;1257;22634;-78
2024/04/15 12:18:46;;;;;;;8.30;4.10;;;;;;;14.68;65.83;98051.04;226770;1258;24239;-79
2024/04/15 12:23:50;;;;;;;5.20;4.00;;;;;;;14.58;65.67;98041.23;226720;1264;22539;-77
2024/04/15 12:29:24;;;;;;;6.40;4.00;;;;;;;14.56;65.87;98023.06;226660;1260;22642;-78
2024/04/15 12:34:27;;;;;;;9.70;4.70;;;;;;;14.57;65.81;98022.98;226977;1257;22530;-78
2024/04/15 12:39:29;;;;;;;6.70;4.80;;;;;;;14.48;65.65;98022.93;227061;1265;22539;-78
2024/04/15 12:44:31;;;;;;;6.10;5.40;;;;;;;14.37;65.81;98022.20;226811;1267;22538;-78
2024/04/15 12:49:33;;;;;;;8.50;7.20;;;;;;;14.22;66.19;98009.40;226924;1263;25513;-76
2024/04/15 12:54:38;;;;;;;12.00;7.70;;;;;;;14.04;66.33;98003.48;226771;1263;22523;-77
2024/04/15 12:59:40;;;;;;;10.60;7.70;;;;;;;13.80;66.89;97994.34;226934;1254;22542;-77
2024/04/15 13:05:07;;;;;;;11.90;8.30;;;;;;;13.66;67.34;97968.37;226736;1270;22503;-79
2024/04/15 13:10:09;;;;;;;11.20;8.30;;;;;;;13.63;67.77;97965.85;226812;1260;22561;-77
2024/04/15 13:15:12;;;;;;;13.70;7.80;;;;;;;13.68;67.89;97961.52;226700;1262;225087;-76
2024/04/15 13:20:14;;;;;;;13.70;8.80;;;;;;;13.72;67.94;97951.79;226624;1264;25932;-76
2024/04/15 13:25:16;;;;;;;9.90;7.30;;;;;;;13.78;68.17;97947.05;226688;1269;23608;-76
2024/04/15 13:30:17;;;;;;;12.90;7.80;;;;;;;13.80;67.74;97930.95;226840;1270;23069;-74
2024/04/15 13:35:20;;;;;;;12.60;6.90;;;;;;;13.71;67.91;97920.07;226789;1253;22577;-77
2024/04/15 13:40:22;;;;;;;13.00;7.70;;;;;;;13.64;67.86;97933.36;226672;1265;25169;-78
2024/04/15 13:45:24;;;;;;;12.00;7.80;;;;;;;13.45;67.96;97928.19;226739;1267;22568;-77
2024/04/15 13:50:26;;;;;;;9.90;7.50;;;;;;;13.41;68.81;97912.80;226877;1272;22540;-79
2024/04/15 13:55:28;;;;;;;11.00;7.30;;;;;;;13.43;68.52;97930.42;226883;1270;25246;-75
2024/04/15 14:00:30;;;;;;;10.70;8.00;;;;;;;13.28;68.56;97951.63;226792;1269;22554;-77
2024/04/15 14:05:32;;;;;;;11.50;7.80;;;;;;;13.20;69.01;97906.27;226997;1263;22951;-78
2024/04/15 14:10:34;;;;;;;10.60;7.70;;;;;;;13.20;69.23;97890.67;226782;1272;24635;-77
2024/04/15 14:15:36;;;;;;;9.90;7.80;;;;;;;13.16;69.19;97875.98;226969;1272;22550;-77
2024/04/15 14:20:38;;;;;;;15.20;9.20;;;;;;;13.18;69.41;97859.02;227224;1272;22555;-78
2024/04/15 14:25:40;;;;;;;13.50;9.60;;;;;;;13.18;69.73;97855.71;226966;1267;22551;-79
2024/04/15 14:30:43;;;;;;;11.20;8.80;;;;;;;13.19;69.67;97839.77;226999;1269;24235;-80
2024/04/15 14:35:44;;;;;;;10.90;9.40;;;;;;;13.19;69.63;97843.38;227066;1270;22546;-77
2024/04/15 14:40:46;;;;;;;14.80;9.10;;;;;;;13.21;69.93;97833.23;227033;1267;22550;-76
2024/04/15 14:45:48;;;;;;;12.60;8.90;;;;;;;13.23;69.86;97824.96;227002;1266;22561;-76
2024/04/15 14:50:55;;;;;;;13.80;9.30;;;;;;;13.20;69.50;97834.95;226800;1269;23742;-78
2024/04/15 14:55:58;;;;;;;11.80;10.00;;;;;;;13.13;69.90;97825.64;227027;1267;22556;-79
2024/04/15 15:01:00;;;;;;;12.10;9.60;;;;;;;13.06;69.83;97819.46;226900;1269;25291;-79
2024/04/15 15:06:02;;;;;;;18.00;10.90;;;;;;;13.01;69.75;97816.80;226830;1270;23627;-78
2024/04/15 15:11:05;;;;;;;17.30;12.40;;;;;;;13.00;70.29;97808.98;226912;1267;25240;-74
2024/04/15 15:16:13;;;;;;;16.30;11.10;;;;;;;12.98;70.20;97803.67;227335;1260;22539;-78
2024/04/15 15:21:15;;;;;;;15.00;11.50;;;;;;;12.95;70.56;97797.09;227176;1272;22571;-78
2024/04/15 15:26:29;;;;;;;15.80;11.80;;;;;;;12.94;70.71;97796.42;227125;1272;22542;-78
2024/04/15 15:31:30;;;;;;;14.50;11.80;;;;;;;12.96;70.60;97788.56;227294;1270;22551;-78
2024/04/15 15:36:32;;;;;;;16.00;12.30;;;;;;;12.99;71.11;97771.05;227135;1272;22637;-78
2024/04/15 15:41:34;;;;;;;19.30;12.40;;;;;;;13.02;70.99;97755.80;227314;1270;25954;-79
2024/04/15 15:46:36;;;;;;;18.90;12.30;;;;;;;13.09;71.42;97744.53;227264;1269;23046;-78
2024/04/15 15:51:40;;;;;;;16.60;12.10;;;;;;;12.99;70.82;97738.91;227375;1270;22577;-78
2024/04/15 15:56:42;;;;;;;16.50;12.90;;;;;;;12.85;71.04;97723.65;227435;1267;22553;-78
2024/04/15 16:01:44;;;;;;;14.60;12.10;;;;;;;12.88;71.64;97720.70;227356;1270;22621;-78
2024/04/15 16:06:47;;;;;;;15.20;12.40;;;;;;;12.90;71.79;97714.09;227261;1272;22535;-79
2024/04/15 16:11:48;;;;;;;22.90;14.60;;;;;;;12.97;71.63;97711.53;227354;1272;23015;-78
2024/04/15 16:16:50;;;;;;;19.70;14.10;;;;;;;12.98;72.07;97698.05;227173;1267;22556;-78
2024/04/15 16:21:53;;;;;;;16.30;12.60;;;;;;;12.97;71.83;97694.20;227277;1263;24243;-78
2024/04/15 16:26:55;;;;;;;15.60;11.90;;;;;;;12.92;71.82;97676.80;227291;1270;22881;-78
2024/04/15 16:31:57;;;;;;;17.40;12.40;;;;;;;12.80;72.00;97669.52;227325;1267;22544;-78
2024/04/15 16:36:59;;;;;;;14.10;12.10;;;;;;;12.64;71.87;97656.41;227103;1272;22539;-77
2024/04/15 16:42:01;;;;;;;16.00;12.60;;;;;;;12.54;72.25;97650.66;227114;1272;22832;-78
2024/04/15 16:47:03;;;;;;;16.60;13.10;;;;;;;12.49;72.68;97638.23;227315;1270;22532;-78
2024/04/15 16:52:05;;;;;;;16.00;12.60;;;;;;;12.40;72.65;97633.36;227298;1267;22582;-78
2024/04/15 16:57:07;;;;;;;21.30;14.60;;;;;;;12.29;72.88;97633.54;227142;1267;22579;-79
2024/04/15 17:02:11;;;;;;;19.60;13.40;;;;;;;12.27;73.06;97628.34;227150;1257;22614;-79
2024/04/15 17:07:14;;;;;;;18.80;13.50;;;;;;;12.25;73.36;97632.73;227015;1270;22558;-78
2024/04/15 17:12:15;;;;;;;19.90;14.00;;;;;;;12.23;73.74;97634.06;227190;1270;22643;-78
2024/04/15 17:17:18;;;;;;;18.10;13.90;;;;;;;12.19;73.90;97623.61;226967;1273;22549;-78
2024/04/15 17:22:20;;;;;;;20.40;14.70;;;;;;;12.12;74.05;97624.45;226776;1273;22550;-77
2024/04/15 17:27:23;;;;;;;21.30;15.80;;;;;;;12.04;74.21;97610.84;226897;1273;22545;-78
2024/04/15 17:32:28;;;;;;;21.30;15.20;;;;;;;11.92;74.37;97591.05;226936;1269;24913;-78
2024/04/15 17:37:30;;;;;;;19.30;15.10;;;;;;;11.76;74.73;97576.94;226971;1273;22537;-77
2024/04/15 17:42:33;;;;;;;22.30;16.00;;;;;;;11.66;74.95;97563.14;226838;1270;22539;-78
2024/04/15 17:47:35;;;;;;;24.80;17.60;;;;;;;11.56;75.33;97569.86;226834;1270;22554;-78
2024/04/15 17:52:38;;;;;;;27.70;20.80;;;;;;;11.46;75.56;97560.45;226825;1270;22530;-77
2024/04/15 17:57:40;;;;;;;32.40;23.40;;;;;;;11.37;76.04;97548.92;226828;1270;22534;-77
2024/04/15 18:02:42;;;;;;;37.60;25.60;;;;;;;11.26;76.12;97536.64;226764;1269;25397;-79
2024/04/15 18:07:44;;;;;;;33.00;23.70;;;;;;;11.15;76.53;97525.31;226872;1270;24194;-78
2024/04/15 18:12:47;;;;;;;29.90;22.20;;;;;;;11.05;76.77;97523.35;226911;1270;22534;-78
2024/04/15 18:17:49;;;;;;;35.80;26.00;;;;;;;10.95;77.22;97524.14;226816;1265;25240;-77
2024/04/15 18:22:51;;;;;;;39.40;28.70;;;;;;;10.87;77.70;97520.88;226774;1270;22538;-78
2024/04/15 18:27:54;;;;;;;40.10;27.70;;;;;;;10.80;77.81;97504.48;226832;1270;22586;-80
2024/04/15 18:32:56;;;;;;;44.40;30.20;;;;;;;10.70;78.19;97502.47;226807;1270;25394;-78
2024/04/15 18:37:59;;;;;;;45.00;31.90;;;;;;;10.61;78.54;97508.45;226818;1269;22548;-78
2024/04/15 18:43:01;;;;;;;62.90;38.40;;;;;;;10.54;78.85;97511.04;226932;1272;22552;-78
2024/04/15 18:48:03;;;;;;;59.00;38.10;;;;;;;10.48;79.00;97503.59;226791;1270;22539;-77
2024/04/15 18:53:05;;;;;;;65.30;39.20;;;;;;;10.44;79.73;97495.01;226736;1273;22579;-78
2024/04/15 18:58:08;;;;;;;60.10;36.20;;;;;;;10.42;79.94;97502.21;226798;1273;24229;-79
2024/04/15 19:03:13;;;;;;;59.30;38.50;;;;;;;10.39;80.11;97489.10;226733;1266;23602;-78
2024/04/15 19:08:15;;;;;;;58.50;40.00;;;;;;;10.38;80.41;97485.13;226952;1269;22544;-77
2024/04/15 19:13:17;;;;;;;55.50;39.90;;;;;;;10.41;80.82;97486.67;226805;1269;26106;-77
2024/04/15 19:18:19;;;;;;;57.00;38.60;;;;;;;10.43;80.88;97460.54;226871;1273;23341;-78
2024/04/15 19:23:22;;;;;;;57.60;37.90;;;;;;;10.41;80.96;97462.09;226842;1270;24267;-79
2024/04/15 19:28:24;;;;;;;56.50;38.40;;;;;;;10.36;80.83;97446.20;226862;1269;22538;-79
2024/04/15 19:33:26;;;;;;;57.40;38.50;;;;;;;10.31;80.83;97429.66;226906;1273;22561;-78
2024/04/15 19:38:28;;;;;;;53.50;36.10;;;;;;;10.22;81.13;97418.67;226821;1269;22543;-78
2024/04/15 19:43:30;;;;;;;52.30;36.50;;;;;;;10.12;81.23;97418.63;226790;1267;25394;-78
2024/04/15 19:48:32;;;;;;;51.80;36.30;;;;;;;10.02;81.46;97415.52;226771;1270;22547;-77
2024/04/15 19:53:34;;;;;;;58.60;39.80;;;;;;;9.98;81.91;97408.16;226820;1270;22553;-78
2024/04/15 19:58:35;;;;;;;51.20;35.00;;;;;;;10.01;82.13;97399.91;226996;1273;25446;-78
2024/04/15 20:03:37;;;;;;;54.10;37.10;;;;;;;10.05;82.36;97394.95;226933;1269;25990;-79
2024/04/15 20:08:39;;;;;;;61.10;38.60;;;;;;;10.11;82.56;97395.90;226869;1251;22592;-77
2024/04/15 20:13:41;;;;;;;61.40;40.20;;;;;;;10.18;82.47;97384.36;226854;1273;22526;-78
2024/04/15 20:18:53;;;;;;;58.50;37.90;;;;;;;10.24;82.86;97372.56;226805;1250;22927;-78
2024/04/15 20:23:55;;;;;;;63.90;39.90;;;;;;;10.30;83.05;97360.68;226796;1269;22558;-78
2024/04/15 20:28:57;;;;;;;59.80;39.30;;;;;;;10.35;83.30;97350.77;226899;1272;22576;-77
2024/04/15 20:33:59;;;;;;;56.10;38.30;;;;;;;10.44;83.70;97345.23;226801;1266;22548;-78
2024/04/15 20:39:01;;;;;;;52.90;37.60;;;;;;;10.53;84.01;97342.48;226831;1270;22571;-77
2024/04/15 20:44:03;;;;;;;62.20;39.70;;;;;;;10.62;84.18;97337.22;226968;1272;22558;-77
2024/04/15 20:49:05;;;;;;;55.90;37.00;;;;;;;10.70;84.14;97338.69;226973;1272;23075;-77
2024/04/15 20:54:07;;;;;;;55.40;39.20;;;;;;;10.76;84.33;97332.35;226850;1270;22540;-78
2024/04/15 20:59:09;;;;;;;56.80;40.00;;;;;;;10.78;84.11;97330.48;226824;1273;24260;-77
2024/04/15 21:04:11;;;;;;;56.80;38.50;;;;;;;10.82;84.21;97329.30;226728;1265;22530;-77
2024/04/15 21:09:25;;;;;;;51.90;36.90;;;;;;;10.85;84.41;97326.19;226947;1272;22552;-78
2024/04/15 21:14:27;;;;;;;33.40;24.10;;;;;;;10.90;85.04;97289.04;226837;1273;22546;-77
2024/04/15 21:19:29;;;;;;;15.30;12.40;;;;;;;11.06;86.33;97254.73;226834;1273;22542;-77
2024/04/15 21:24:31;;;;;;;9.00;6.90;;;;;;;11.32;87.90;97235.83;226833;1270;23427;-78
2024/04/15 21:29:35;;;;;;;14.80;7.40;;;;;;;11.59;87.52;97256.90;226933;1272;22590;-77
2024/04/15 21:34:37;;;;;;;5.00;3.70;;;;;;;11.81;87.15;97268.56;226896;1273;22565;-77
2024/04/15 21:39:39;;;;;;;8.40;6.40;;;;;;;11.93;85.90;97277.55;226814;1266;22552;-78
2024/04/15 21:44:41;;;;;;;8.90;7.40;;;;;;;11.95;86.88;97256.63;226935;1269;23649;-78
2024/04/15 21:49:43;;;;;;;10.10;7.90;;;;;;;11.95;86.82;97253.92;226850;1273;22547;-78
2024/04/15 21:54:45;;;;;;;10.50;8.80;;;;;;;11.95;86.47;97243.02;226875;1272;22557;-77
2024/04/15 21:59:47;;;;;;;13.20;10.00;;;;;;;11.95;86.64;97237.30;226882;1270;25342;-77
2024/04/15 22:04:49;;;;;;;12.70;11.40;;;;;;;11.96;86.76;97235.00;226865;1269;22614;-77
2024/04/15 22:10:02;;;;;;;15.10;13.30;;;;;;;11.98;87.41;97224.10;226803;1269;22564;-78
2024/04/15 22:15:05;;;;;;;13.90;12.20;;;;;;;12.00;87.41;97220.16;226949;1272;22537;-78
2024/04/15 22:20:07;;;;;;;13.30;11.10;;;;;;;12.01;87.46;97203.65;226822;1269;22646;-78
2024/04/15 22:25:08;;;;;;;14.90;13.10;;;;;;;11.99;87.37;97173.19;226874;1268;22566;-78
2024/04/15 22:30:10;;;;;;;12.60;10.80;;;;;;;11.94;87.18;97168.64;226796;1270;22603;-78
2024/04/15 22:35:12;;;;;;;10.30;9.20;;;;;;;11.89;87.46;97165.51;226807;1266;22554;-77
2024/04/15 22:40:14;;;;;;;9.60;8.00;;;;;;;11.86;87.73;97164.98;226735;1271;22569;-80
2024/04/15 22:45:16;;;;;;;7.30;6.60;;;;;;;11.83;87.75;97158.48;226872;1269;24677;-78
2024/04/15 22:50:18;;;;;;;8.20;5.50;;;;;;;11.81;87.89;97155.52;226849;1266;22529;-77
2024/04/15 22:55:20;;;;;;;5.60;4.80;;;;;;;11.78;88.05;97134.82;226954;1269;25414;-76
2024/04/15 23:00:22;;;;;;;5.20;4.30;;;;;;;11.76;88.26;97137.58;226836;1269;22638;-77
2024/04/15 23:05:24;;;;;;;5.70;4.30;;;;;;;11.76;88.78;97142.06;226908;1270;22535;-77
2024/04/15 23:10:27;;;;;;;6.40;3.90;;;;;;;11.74;88.66;97149.15;226821;1273;22526;-77